Time;durP1;ratioP1;P1;durP2;ratioP2;P2;SDS_P1;SDS_P2;PMS_P1;PMS_P2;Temp;Humidity;BMP_temperature;BMP_pressure;BME280_temperature;BME280_humidity;BME280_pressure;Samples;Min_cycle;Max_cycle;Signal;HPM_P1;HPM_P2
2022/10/20 00:00:57;;;;;;;;;13.50;12.25;;;;;19.80;63.62;100727.88;5077187;27;45475;-59
2022/10/20 00:03:24;;;;;;;;;13.75;13.50;;;;;19.76;63.08;100726.31;5071935;28;45587;-59
2022/10/20 00:05:50;;;;;;;;;15.00;13.25;;;;;19.78;63.23;100737.75;5075047;28;47445;-59
2022/10/20 00:08:16;;;;;;;;;15.25;12.00;;;;;19.78;63.37;100731.56;5070567;28;45648;-59
2022/10/20 00:10:42;;;;;;;;;15.00;14.75;;;;;19.78;63.51;100729.75;5077364;27;45543;-59
2022/10/20 00:13:07;;;;;;;;;12.75;12.25;;;;;19.79;63.62;100719.97;5075878;27;45513;-59
2022/10/20 00:15:33;;;;;;;;;15.00;12.75;;;;;19.79;63.55;100720.81;5075560;27;45378;-59
2022/10/20 00:17:58;;;;;;;;;14.00;11.75;;;;;19.79;63.12;100725.28;5073051;28;45657;-59
2022/10/20 00:20:23;;;;;;;;;14.75;13.00;;;;;19.79;63.53;100731.47;5063635;28;46273;-59
2022/10/20 00:22:49;;;;;;;;;15.00;13.75;;;;;19.80;63.14;100729.69;5060306;28;45494;-59
2022/10/20 00:25:14;;;;;;;;;16.25;15.25;;;;;19.80;63.61;100733.19;5061809;28;45988;-59
2022/10/20 00:27:39;;;;;;;;;12.25;12.25;;;;;19.80;63.15;100730.53;5060478;28;45595;-59
2022/10/20 00:30:05;;;;;;;;;19.50;16.75;;;;;19.79;63.24;100726.13;5062019;28;45263;-59
2022/10/20 00:32:31;;;;;;;;;16.00;14.75;;;;;19.79;63.61;100718.13;5061580;28;45248;-59
2022/10/20 00:34:56;;;;;;;;;13.00;13.00;;;;;19.79;63.51;100714.63;5061390;28;46301;-59
2022/10/20 00:37:21;;;;;;;;;15.25;12.75;;;;;19.78;63.87;100712.91;5061864;28;45393;-59
2022/10/20 00:39:47;;;;;;;;;14.00;12.75;;;;;19.79;63.23;100719.97;5061739;28;45283;-59
2022/10/20 00:42:18;;;;;;;;;13.75;12.00;;;;;19.77;63.26;100714.72;5061333;28;45362;-57
2022/10/20 00:44:51;;;;;;;;;18.75;15.25;;;;;19.78;63.83;100699.56;5061491;28;46327;-59
2022/10/20 00:47:20;;;;;;;;;14.75;12.75;;;;;19.78;63.40;100707.56;5061585;28;45251;-59
2022/10/20 00:49:48;;;;;;;;;15.25;14.00;;;;;19.76;63.40;100706.78;5061450;28;45397;-59
2022/10/20 00:52:18;;;;;;;;;15.25;13.25;;;;;19.76;63.73;100698.78;5061374;28;45493;-59
2022/10/20 00:54:43;;;;;;;;;14.00;13.75;;;;;19.73;63.34;100689.13;5059800;28;46412;-59
2022/10/20 00:57:09;;;;;;;;;14.75;14.75;;;;;19.75;63.71;100692.59;5061311;28;45192;-59
2022/10/20 00:59:36;;;;;;;;;14.00;14.00;;;;;19.74;63.71;100690.88;5061414;28;45324;-59
2022/10/20 01:02:03;;;;;;;;;16.50;14.00;;;;;19.74;63.44;100693.53;5061534;28;45486;-57
2022/10/20 01:04:30;;;;;;;;;15.00;11.50;;;;;19.75;63.30;100689.09;5060971;28;46465;-57
2022/10/20 01:06:56;;;;;;;;;12.75;12.25;;;;;19.74;63.24;100680.22;5061147;28;45340;-57
2022/10/20 01:09:22;;;;;;;;;14.25;11.75;;;;;19.77;63.70;100693.38;5060971;28;45319;-57
2022/10/20 01:11:57;;;;;;;;;15.25;13.25;;;;;19.77;63.70;100701.38;5061036;28;45192;-58
2022/10/20 01:14:31;;;;;;;;;17.75;14.50;;;;;19.76;63.51;100707.66;5064338;28;46209;-58
2022/10/20 01:17:18;;;;;;;;;16.75;14.00;;;;;19.75;63.29;100716.59;5072488;28;45239;-57
2022/10/20 01:19:52;;;;;;;;;15.75;15.75;;;;;19.75;63.24;100729.06;5073633;27;45177;-57
2022/10/20 01:22:36;;;;;;;;;15.25;14.00;;;;;19.73;63.79;100726.47;5060829;28;45516;-57
2022/10/20 01:25:17;;;;;;;;;14.50;14.00;;;;;19.71;63.83;100720.38;5060691;28;46181;-58
2022/10/20 01:27:45;;;;;;;;;16.00;14.75;;;;;19.69;63.54;100721.41;5060753;28;45345;-57
2022/10/20 01:30:20;;;;;;;;;15.00;13.50;;;;;19.68;63.50;100722.34;5060966;28;45484;-58
2022/10/20 01:33:20;;;;;;;;;13.50;13.50;;;;;19.66;63.82;100730.41;5060591;28;45439;-58
2022/10/20 01:35:59;;;;;;;;;12.75;12.25;;;;;19.62;63.55;100732.38;5060599;28;46333;-57
2022/10/20 01:38:47;;;;;;;;;15.50;11.25;;;;;19.60;63.75;100733.41;5060418;28;45573;-57
2022/10/20 01:42:04;;;;;;;;;15.00;13.75;;;;;19.58;63.94;100736.13;5060658;28;45185;-57
2022/10/20 01:44:32;;;;;;;;;15.50;15.50;;;;;19.54;64.13;100760.38;5037396;28;45480;-57
2022/10/20 01:46:59;;;;;;;;;15.50;14.75;;;;;19.48;64.37;100786.38;5060366;28;45401;-57
2022/10/20 01:49:25;;;;;;;;;17.75;13.75;;;;;19.45;64.17;100770.53;5060546;28;45331;-57
2022/10/20 01:51:51;;;;;;;;;16.75;14.25;;;;;19.42;63.92;100780.50;5060488;28;45540;-57
2022/10/20 01:54:27;;;;;;;;;16.00;13.75;;;;;19.41;64.04;100768.97;5060210;28;45390;-57
2022/10/20 01:57:20;;;;;;;;;14.75;13.50;;;;;19.33;64.58;100750.72;5060243;28;45481;-58
2022/10/20 02:00:15;;;;;;;;;11.50;11.50;;;;;19.32;64.70;100732.16;5060271;28;45345;-57
2022/10/20 02:03:19;;;;;;;;;17.25;16.25;;;;;19.32;64.53;100726.84;5051430;28;45391;-57
2022/10/20 02:05:50;;;;;;;;;16.00;14.25;;;;;19.27;64.43;100711.06;5050970;28;45323;-57
2022/10/20 02:08:23;;;;;;;;;15.50;12.25;;;;;19.29;64.37;100692.34;5060234;28;45306;-57
2022/10/20 02:10:51;;;;;;;;;13.50;10.00;;;;;19.28;64.14;100655.97;5058706;28;45315;-57
2022/10/20 02:13:19;;;;;;;;;14.25;11.25;;;;;19.28;64.17;100626.69;5058977;28;45584;-58
2022/10/20 02:15:50;;;;;;;;;13.75;12.25;;;;;19.24;64.64;100625.97;5062982;28;45412;-57
2022/10/20 02:18:21;;;;;;;;;11.25;8.75;;;;;19.23;64.76;100652.69;5071548;28;45263;-57
2022/10/20 02:20:51;;;;;;;;;10.75;10.75;;;;;19.22;64.87;100661.63;5061667;28;45318;-57
2022/10/20 02:23:17;;;;;;;;;13.50;11.50;;;;;19.22;64.91;100637.66;5060032;28;45490;-57
2022/10/20 02:25:42;;;;;;;;;13.75;12.75;;;;;19.23;64.58;100607.41;5059715;28;45330;-57
2022/10/20 02:28:11;;;;;;;;;13.00;11.75;;;;;19.22;64.84;100587.03;5059956;28;45639;-57
2022/10/20 02:30:38;;;;;;;;;15.25;10.75;;;;;19.23;64.66;100578.13;5060009;28;45257;-58
2022/10/20 02:33:05;;;;;;;;;13.25;11.25;;;;;19.23;65.16;100538.16;5060058;28;45416;-57
2022/10/20 02:35:32;;;;;;;;;9.25;8.25;;;;;19.25;64.95;100573.59;5059571;28;45515;-57
2022/10/20 02:37:57;;;;;;;;;11.00;10.00;;;;;19.25;64.97;100586.91;5059790;28;45524;-58
2022/10/20 02:40:23;;;;;;;;;7.00;7.00;;;;;19.25;65.16;100597.56;5059575;28;45344;-58
2022/10/20 02:42:48;;;;;;;;;13.75;8.75;;;;;19.29;65.38;100601.78;5060236;28;45413;-57
2022/10/20 02:45:13;;;;;;;;;11.25;11.25;;;;;19.31;65.17;100603.41;5058391;28;45246;-58
2022/10/20 02:47:39;;;;;;;;;8.50;8.50;;;;;19.33;65.53;100601.53;5059715;28;46275;-58
2022/10/20 02:50:06;;;;;;;;;9.00;8.50;;;;;19.37;65.47;100602.25;5059668;28;45294;-57
2022/10/20 02:52:32;;;;;;;;;11.00;9.00;;;;;19.38;65.24;100614.59;5059732;28;45279;-57
2022/10/20 02:54:57;;;;;;;;;9.75;9.75;;;;;19.40;65.13;100615.38;5059593;28;45494;-57
2022/10/20 02:57:22;;;;;;;;;13.00;11.75;;;;;19.44;65.00;100632.91;5059501;28;47022;-57
2022/10/20 02:59:48;;;;;;;;;13.50;6.75;;;;;19.43;65.14;100664.97;5059635;28;45147;-58
2022/10/20 03:02:13;;;;;;;;;13.25;11.00;;;;;19.48;65.47;100673.59;5059901;28;45402;-57
2022/10/20 03:04:38;;;;;;;;;7.25;7.25;;;;;19.50;65.59;100677.03;5059397;28;47742;-58
2022/10/20 03:07:03;;;;;;;;;12.25;10.00;;;;;19.51;65.51;100676.13;5059679;28;45181;-57
2022/10/20 03:09:29;;;;;;;;;8.00;7.75;;;;;19.57;65.65;100661.59;5059279;28;45299;-58
2022/10/20 03:11:54;;;;;;;;;9.50;7.50;;;;;19.57;65.67;100665.13;5059572;28;45271;-58
2022/10/20 03:14:19;;;;;;;;;8.25;8.00;;;;;19.60;65.39;100656.09;5061452;28;45184;-58
2022/10/20 03:16:45;;;;;;;;;10.50;8.00;;;;;19.65;65.08;100638.91;5069160;28;49798;-58
2022/10/20 03:19:10;;;;;;;;;7.00;7.00;;;;;19.64;65.53;100626.53;5069005;27;45443;-58
2022/10/20 03:21:35;;;;;;;;;7.25;7.25;;;;;19.71;64.95;100634.19;5069991;27;45381;-57
2022/10/20 03:24:01;;;;;;;;;7.50;6.00;;;;;19.71;65.17;100628.84;5071545;27;45269;-57
2022/10/20 03:26:26;;;;;;;;;8.25;7.00;;;;;19.74;65.55;100629.56;5070778;27;46311;-57
2022/10/20 03:28:52;;;;;;;;;7.50;7.50;;;;;19.75;65.02;100633.09;5076582;27;45369;-57
2022/10/20 03:31:17;;;;;;;;;9.00;8.50;;;;;19.76;65.26;100640.13;5078751;27;45871;-57
2022/10/20 03:33:42;;;;;;;;;13.75;8.00;;;;;19.77;65.13;100648.06;5071959;28;45326;-58
2022/10/20 03:36:08;;;;;;;;;10.50;8.50;;;;;19.78;65.13;100647.09;5076774;28;45410;-59
2022/10/20 03:38:33;;;;;;;;;11.00;7.75;;;;;19.81;65.00;100656.75;5072813;27;45491;-58
2022/10/20 03:40:58;;;;;;;;;8.75;7.00;;;;;19.80;65.21;100645.22;5074106;28;45773;-58
2022/10/20 03:43:24;;;;;;;;;13.25;8.25;;;;;19.81;65.74;100643.44;5075600;27;46214;-58
2022/10/20 03:45:49;;;;;;;;;9.25;8.50;;;;;19.83;65.13;100643.38;5070720;28;45842;-58
2022/10/20 03:48:14;;;;;;;;;8.25;7.00;;;;;19.84;65.46;100648.63;5075765;27;46435;-58
2022/10/20 03:50:41;;;;;;;;;8.25;7.25;;;;;19.84;65.13;100642.44;5060959;28;45753;-58
2022/10/20 03:53:10;;;;;;;;;6.25;6.25;;;;;19.83;65.76;100641.56;5061045;28;45200;-58
2022/10/20 03:55:36;;;;;;;;;7.25;5.75;;;;;19.81;65.63;100646.09;5061561;28;46418;-58
2022/10/20 03:58:01;;;;;;;;;7.00;7.00;;;;;19.82;65.28;100645.13;5061430;28;45490;-58
2022/10/20 04:00:27;;;;;;;;;8.75;6.00;;;;;19.83;65.55;100648.72;5061839;28;45261;-58
2022/10/20 04:02:52;;;;;;;;;7.00;7.00;;;;;19.83;65.31;100654.88;5062177;28;45327;-58
2022/10/20 04:05:19;;;;;;;;;9.50;7.00;;;;;19.81;65.48;100654.94;5062221;28;45342;-58
2022/10/20 04:07:45;;;;;;;;;7.50;7.50;;;;;19.80;65.62;100652.38;5061968;28;45425;-58
2022/10/20 04:10:13;;;;;;;;;9.75;6.75;;;;;19.80;65.68;100655.88;5062154;28;45381;-58
2022/10/20 04:12:39;;;;;;;;;8.50;7.25;;;;;19.83;65.31;100633.56;5061805;28;45221;-58
2022/10/20 04:15:06;;;;;;;;;11.25;9.50;;;;;19.83;65.74;100648.72;5064493;28;46080;-58
2022/10/20 04:17:32;;;;;;;;;11.00;8.00;;;;;19.85;65.87;100636.13;5075444;28;45394;-58
2022/10/20 04:19:57;;;;;;;;;11.25;10.00;;;;;19.85;65.79;100612.13;5063909;28;45363;-58
2022/10/20 04:22:22;;;;;;;;;9.75;8.50;;;;;19.84;65.72;100615.78;5061713;28;45367;-58
2022/10/20 04:24:48;;;;;;;;;9.00;7.75;;;;;19.85;65.46;100628.13;5062057;28;45440;-58
2022/10/20 04:27:13;;;;;;;;;11.00;6.25;;;;;19.83;65.74;100614.91;5061659;28;45366;-58
2022/10/20 04:29:38;;;;;;;;;10.25;9.00;;;;;19.79;65.36;100592.84;5062235;28;45366;-58
2022/10/20 04:32:04;;;;;;;;;12.00;9.00;;;;;19.79;66.03;100592.00;5060470;28;45401;-58
2022/10/20 04:34:29;;;;;;;;;13.25;11.25;;;;;19.78;65.58;100580.44;5061553;28;46095;-58
2022/10/20 04:36:54;;;;;;;;;11.25;8.50;;;;;19.77;65.98;100585.88;5061393;28;45276;-58
2022/10/20 04:39:20;;;;;;;;;13.50;11.00;;;;;19.77;66.15;100609.88;5059990;28;45342;-58
2022/10/20 04:41:45;;;;;;;;;7.75;7.75;;;;;19.78;66.04;100627.59;5061560;28;45326;-58
2022/10/20 04:44:10;;;;;;;;;13.75;11.75;;;;;19.76;65.57;100625.00;5061553;28;45470;-58
2022/10/20 04:46:36;;;;;;;;;14.25;11.00;;;;;19.76;66.06;100635.66;5061604;28;45243;-58
2022/10/20 04:49:01;;;;;;;;;6.50;6.50;;;;;19.75;65.43;100628.63;5061870;28;45433;-58
2022/10/20 04:51:27;;;;;;;;;10.75;8.25;;;;;19.71;66.03;100618.19;5061548;28;45227;-58
2022/10/20 04:53:53;;;;;;;;;10.75;10.75;;;;;19.74;65.68;100629.56;5061046;28;48908;-58
2022/10/20 04:56:20;;;;;;;;;13.25;7.75;;;;;19.73;65.56;100613.66;5061090;28;45170;-64
2022/10/20 04:58:49;;;;;;;;;11.00;9.75;;;;;19.72;65.54;100596.81;5065741;28;45193;-58
2022/10/20 05:01:15;;;;;;;;;10.50;10.50;;;;;19.71;65.45;100604.88;5061067;28;45548;-58
2022/10/20 05:03:40;;;;;;;;;6.00;6.00;;;;;19.70;65.55;100614.69;5061157;28;46948;-57
2022/10/20 05:06:14;;;;;;;;;14.25;9.50;;;;;19.70;65.69;100628.00;5061070;28;45244;-57
2022/10/20 05:08:40;;;;;;;;;12.25;11.25;;;;;19.68;66.13;100623.72;5061246;28;45291;-58
2022/10/20 05:11:06;;;;;;;;;13.00;8.50;;;;;19.64;65.92;100642.50;5060862;28;45332;-57
2022/10/20 05:13:32;;;;;;;;;13.50;9.25;;;;;19.60;66.28;100642.78;5060822;28;46159;-57
2022/10/20 05:15:57;;;;;;;;;12.75;10.50;;;;;19.59;66.07;100649.06;5065929;28;45275;-57
2022/10/20 05:18:22;;;;;;;;;10.50;8.50;;;;;19.47;65.93;100645.22;5071453;28;45232;-58
2022/10/20 05:20:48;;;;;;;;;12.75;8.00;;;;;19.53;66.00;100665.38;5073126;27;45204;-58
2022/10/20 05:23:13;;;;;;;;;10.25;9.00;;;;;19.51;66.46;100641.47;5080299;27;45211;-57
2022/10/20 05:25:38;;;;;;;;;12.00;9.00;;;;;19.51;66.34;100656.56;5072367;27;45300;-57
2022/10/20 05:28:05;;;;;;;;;9.25;9.00;;;;;19.47;66.17;100672.75;5072393;27;45153;-57
2022/10/20 05:30:32;;;;;;;;;13.50;11.25;;;;;19.46;66.68;100676.34;5071958;28;45209;-59
2022/10/20 05:32:57;;;;;;;;;9.25;8.25;;;;;19.44;66.39;100667.56;5069155;28;46492;-58
2022/10/20 05:35:23;;;;;;;;;10.75;8.00;;;;;19.40;66.55;100665.16;5073276;28;49052;-58
2022/10/20 05:37:48;;;;;;;;;9.75;8.75;;;;;19.44;66.82;100672.03;5070774;28;45453;-59
2022/10/20 05:40:13;;;;;;;;;10.50;7.75;;;;;19.39;66.37;100658.94;5074864;28;53038;-58
2022/10/20 05:42:39;;;;;;;;;10.00;9.25;;;;;19.38;66.44;100654.56;5067751;28;46124;-59
2022/10/20 05:45:05;;;;;;;;;8.75;8.00;;;;;19.39;66.54;100655.44;5071650;27;45270;-59
2022/10/20 05:47:31;;;;;;;;;10.50;9.25;;;;;19.40;66.55;100649.16;5068920;27;45303;-59
2022/10/20 05:49:56;;;;;;;;;13.00;9.75;;;;;19.38;66.85;100645.72;5072519;28;45295;-60
2022/10/20 05:52:21;;;;;;;;;12.25;10.75;;;;;19.31;66.31;100645.19;5072213;28;45359;-67
2022/10/20 05:54:47;;;;;;;;;7.00;5.00;;;;;19.38;67.07;100643.91;5072407;27;45154;-61
2022/10/20 05:57:12;;;;;;;;;13.25;9.50;;;;;19.38;66.52;100643.06;5072358;28;45177;-64
2022/10/20 05:59:37;;;;;;;;;8.50;8.00;;;;;19.38;66.88;100641.22;5073380;27;45344;-64
2022/10/20 06:02:02;;;;;;;;;11.50;8.25;;;;;19.39;66.95;100648.28;5072145;28;46009;-61
2022/10/20 06:04:30;;;;;;;;;9.50;7.00;;;;;19.37;66.61;100634.22;5071229;27;45153;-60
2022/10/20 06:06:56;;;;;;;;;11.25;9.25;;;;;19.37;66.78;100631.53;5072695;28;45239;-65
2022/10/20 06:09:23;;;;;;;;;7.00;7.00;;;;;19.38;66.46;100629.72;5066678;27;45360;-65
2022/10/20 06:11:49;;;;;;;;;11.00;7.00;;;;;19.39;66.79;100626.97;5066637;27;47754;-64
2022/10/20 06:14:16;;;;;;;;;8.50;6.00;;;;;19.38;67.07;100624.41;5078106;28;45464;-65
2022/10/20 06:16:42;;;;;;;;;8.75;6.75;;;;;19.36;66.84;100610.28;5076558;27;45464;-62
2022/10/20 06:19:07;;;;;;;;;6.50;6.50;;;;;19.33;66.85;100558.91;5069814;27;45311;-63
2022/10/20 06:21:34;;;;;;;;;7.00;6.00;;;;;19.36;66.87;100560.53;5070790;27;46124;-64
2022/10/20 06:24:03;;;;;;;;;6.25;6.25;;;;;19.36;67.21;100563.22;5063068;28;45374;-64
2022/10/20 06:26:33;;;;;;;;;6.25;6.25;;;;;19.36;66.80;100563.22;5060418;28;45436;-63
2022/10/20 06:28:59;;;;;;;;;6.00;5.25;;;;;19.35;66.63;100550.81;5073236;28;45468;-63
2022/10/20 06:31:33;;;;;;;;;12.75;8.00;;;;;19.36;67.17;100527.69;5061366;28;47230;-63
2022/10/20 06:33:59;;;;;;;;;7.25;5.00;;;;;19.35;67.09;100524.19;5076417;28;45288;-64
2022/10/20 06:36:26;;;;;;;;;4.50;4.25;;;;;19.35;66.53;100523.34;5068526;27;45264;-65
2022/10/20 06:38:56;;;;;;;;;7.25;4.00;;;;;19.32;66.65;100529.69;5069690;27;45507;-64
2022/10/20 06:41:22;;;;;;;;;6.00;4.75;;;;;19.29;66.67;100527.19;5068334;27;46229;-65
2022/10/20 06:43:48;;;;;;;;;7.00;5.50;;;;;19.29;66.59;100532.50;5062067;27;45496;-64
2022/10/20 06:46:17;;;;;;;;;7.75;6.00;;;;;19.27;66.79;100526.38;5062783;28;45298;-64
2022/10/20 06:48:44;;;;;;;;;6.25;6.25;;;;;19.23;66.79;100525.72;5060381;28;45441;-65
2022/10/20 06:51:12;;;;;;;;;9.50;6.50;;;;;19.23;66.99;100511.53;5063027;28;46078;-65
2022/10/20 06:53:38;;;;;;;;;6.50;5.75;;;;;19.20;66.74;100531.19;5060885;28;45307;-65
2022/10/20 06:56:07;;;;;;;;;7.00;4.50;;;;;19.19;66.41;100534.81;5064067;28;45409;-64
2022/10/20 06:58:34;;;;;;;;;6.25;4.00;;;;;19.17;66.78;100545.53;5061388;28;45513;-65
2022/10/20 07:01:04;;;;;;;;;7.00;5.75;;;;;19.15;66.78;100552.75;5063531;28;46324;-65
2022/10/20 07:03:32;;;;;;;;;7.25;6.25;;;;;19.14;66.41;100559.03;5065275;28;45227;-65
2022/10/20 07:05:58;;;;;;;;;6.25;4.00;;;;;19.14;66.67;100572.34;5067061;28;45392;-65
2022/10/20 07:08:26;;;;;;;;;9.50;7.00;;;;;19.12;66.81;100587.53;5077804;28;45448;-65
2022/10/20 07:11:04;;;;;;;;;8.00;6.00;;;;;19.15;66.30;100603.34;5068547;27;46174;-65
2022/10/20 07:13:30;;;;;;;;;9.75;6.25;;;;;19.14;66.55;100606.09;5066582;28;45277;-64
2022/10/20 07:15:57;;;;;;;;;5.50;4.50;;;;;19.12;66.33;100610.66;5081385;27;45247;-65
2022/10/20 07:18:23;;;;;;;;;6.00;4.50;;;;;19.11;66.46;100624.91;5082895;27;45421;-64
2022/10/20 07:20:48;;;;;;;;;9.75;6.00;;;;;19.10;66.41;100633.84;5079029;28;46233;-64
2022/10/20 07:23:14;;;;;;;;;8.75;6.00;;;;;19.10;66.51;100644.50;5079953;27;45469;-65
2022/10/20 07:25:39;;;;;;;;;5.50;5.50;;;;;19.07;66.31;100642.84;5066088;28;45479;-65
2022/10/20 07:28:04;;;;;;;;;7.50;7.25;;;;;19.06;66.95;100649.09;5073432;28;45319;-65
2022/10/20 07:30:30;;;;;;;;;9.75;7.50;;;;;19.05;66.71;100644.72;5065689;28;46107;-65
2022/10/20 07:32:55;;;;;;;;;8.00;6.50;;;;;18.99;66.76;100647.69;5063925;28;45259;-65
2022/10/20 07:35:20;;;;;;;;;10.50;7.00;;;;;18.98;66.50;100653.94;5065022;28;45614;-65
2022/10/20 07:37:46;;;;;;;;;12.00;8.25;;;;;18.95;66.41;100648.78;5073350;28;45298;-65
2022/10/20 07:40:11;;;;;;;;;10.00;8.50;;;;;18.92;66.95;100643.63;5081212;28;48064;-65
2022/10/20 07:42:36;;;;;;;;;7.50;7.00;;;;;18.90;66.91;100649.00;5071944;27;45391;-65
2022/10/20 07:45:03;;;;;;;;;8.50;6.50;;;;;18.88;66.84;100648.22;5065644;28;45488;-65
2022/10/20 07:47:28;;;;;;;;;8.50;8.50;;;;;18.87;67.23;100645.59;5063984;28;45170;-65
2022/10/20 07:49:53;;;;;;;;;11.75;9.25;;;;;18.87;66.73;100642.94;5065306;28;46171;-65
2022/10/20 07:52:19;;;;;;;;;14.00;10.00;;;;;18.86;66.75;100649.25;5064287;28;46699;-65
2022/10/20 07:54:44;;;;;;;;;10.25;8.50;;;;;18.84;67.16;100646.63;5066589;28;45421;-65
2022/10/20 07:57:10;;;;;;;;;8.25;7.75;;;;;18.81;66.87;100646.81;5064546;28;45315;-65
2022/10/20 07:59:35;;;;;;;;;9.50;7.50;;;;;18.79;67.32;100643.34;5066943;28;46010;-65
2022/10/20 08:02:00;;;;;;;;;8.00;6.00;;;;;18.83;67.20;100644.94;5064741;28;45430;-64
2022/10/20 08:04:26;;;;;;;;;6.50;5.00;;;;;18.80;67.10;100645.06;5067159;28;45264;-65
2022/10/20 08:06:52;;;;;;;;;6.75;5.25;;;;;18.82;67.09;100651.19;5069046;28;45295;-65
2022/10/20 08:09:17;;;;;;;;;6.25;4.75;;;;;18.84;67.21;100647.50;5075361;27;46195;-65
2022/10/20 08:11:43;;;;;;;;;7.00;6.00;;;;;18.85;67.53;100651.03;5064821;28;45454;-65
2022/10/20 08:14:08;;;;;;;;;3.75;3.50;;;;;18.88;67.24;100647.34;5070494;27;45228;-65
2022/10/20 08:16:34;;;;;;;;;7.50;6.00;;;;;18.82;67.36;100638.72;5080175;27;45237;-65
2022/10/20 08:19:00;;;;;;;;;5.00;4.50;;;;;18.85;67.71;100629.72;5071935;27;46271;-66
2022/10/20 08:21:25;;;;;;;;;4.25;4.25;;;;;18.84;67.96;100631.53;5073862;27;45473;-65
2022/10/20 08:23:51;;;;;;;;;6.50;5.25;;;;;18.91;67.64;100639.25;5065264;28;45330;-65
2022/10/20 08:26:21;;;;;;;;;4.25;4.25;;;;;18.90;67.19;100629.50;5063732;28;45538;-65
2022/10/20 08:28:51;;;;;;;;;4.50;3.75;;;;;18.98;67.57;100643.31;5075828;28;45449;-65
2022/10/20 08:31:16;;;;;;;;;3.75;2.50;;;;;19.02;67.35;100654.66;5072452;28;45671;-65
2022/10/20 08:33:42;;;;;;;;;5.25;4.50;;;;;19.04;67.64;100650.97;5066336;27;45907;-65
2022/10/20 08:36:10;;;;;;;;;4.00;3.00;;;;;19.09;67.65;100637.44;5063551;28;45299;-65
2022/10/20 08:38:36;;;;;;;;;6.00;4.00;;;;;19.12;67.35;100639.97;5064584;28;45426;-65
2022/10/20 08:41:05;;;;;;;;;3.00;3.00;;;;;19.16;67.10;100645.03;5063170;28;45650;-65
2022/10/20 08:43:35;;;;;;;;;4.25;3.00;;;;;19.18;67.16;100644.94;5065268;28;45308;-65
2022/10/20 08:46:00;;;;;;;;;4.00;4.00;;;;;19.21;67.06;100643.94;5063546;28;45451;-65
2022/10/20 08:48:31;;;;;;;;;3.50;3.50;;;;;19.24;67.65;100646.44;5065477;28;45346;-65
2022/10/20 08:50:57;;;;;;;;;4.50;2.00;;;;;19.26;67.34;100649.91;5063795;28;45458;-65
2022/10/20 08:53:25;;;;;;;;;4.25;2.50;;;;;19.30;67.16;100654.13;5064048;27;45438;-65
2022/10/20 08:55:50;;;;;;;;;3.25;2.25;;;;;19.35;67.44;100660.06;5063914;28;45300;-65
2022/10/20 08:58:20;;;;;;;;;2.75;2.00;;;;;19.36;67.62;100645.81;5063285;28;45235;-65
2022/10/20 09:00:47;;;;;;;;;3.00;3.00;;;;;19.43;66.87;100652.53;5074878;28;45378;-65
2022/10/20 09:03:22;;;;;;;;;4.00;3.50;;;;;19.44;67.01;100651.56;5062903;28;45181;-65
2022/10/20 09:05:53;;;;;;;;;5.00;3.00;;;;;19.45;67.43;100663.97;5074345;28;45454;-64
2022/10/20 09:08:21;;;;;;;;;5.75;3.75;;;;;19.42;67.72;100653.47;5075890;28;45903;-65
2022/10/20 09:10:50;;;;;;;;;4.25;3.00;;;;;19.48;67.43;100658.47;5066229;28;45260;-65
2022/10/20 09:13:26;;;;;;;;;3.00;2.00;;;;;19.50;67.22;100655.72;5063426;28;45271;-65
2022/10/20 09:15:57;;;;;;;;;3.00;2.00;;;;;19.59;67.01;100663.22;5077847;28;45243;-64
2022/10/20 09:18:23;;;;;;;;;3.00;3.00;;;;;19.68;67.29;100656.53;5071251;27;45320;-65
2022/10/20 09:20:59;;;;;;;;;4.00;4.00;;;;;19.78;66.80;100657.75;5076681;28;45463;-65
2022/10/20 09:23:36;;;;;;;;;3.25;3.00;;;;;19.80;66.69;100657.69;5062322;28;45246;-64
2022/10/20 09:26:02;;;;;;;;;3.75;3.75;;;;;19.88;66.64;100660.81;5074158;28;45402;-65
2022/10/20 09:28:27;;;;;;;;;3.50;2.50;;;;;19.92;67.06;100654.41;5073921;28;46270;-65
2022/10/20 09:30:54;;;;;;;;;4.25;2.25;;;;;19.97;66.83;100659.47;5062101;28;45309;-65
2022/10/20 09:33:29;;;;;;;;;6.75;5.75;;;;;20.06;67.21;100648.31;5062759;28;45331;-65
2022/10/20 09:36:03;;;;;;;;;4.25;4.25;;;;;20.12;67.04;100637.28;5061837;28;45382;-65
2022/10/20 09:38:32;;;;;;;;;5.25;2.75;;;;;20.21;66.78;100643.03;5062642;28;45457;-65
2022/10/20 09:41:17;;;;;;;;;5.00;4.00;;;;;20.34;66.77;100633.41;5061721;28;45334;-65
2022/10/20 09:43:52;;;;;;;;;4.00;4.00;;;;;20.45;66.56;100632.78;5074071;28;45319;-65
2022/10/20 09:46:25;;;;;;;;;2.25;2.25;;;;;20.55;66.04;100636.66;5062923;28;45245;-65
2022/10/20 09:48:50;;;;;;;;;5.00;4.00;;;;;20.68;65.71;100635.91;5061447;28;46102;-65
2022/10/20 09:51:21;;;;;;;;;3.00;2.00;;;;;20.69;65.95;100638.53;5062588;28;45327;-65
2022/10/20 09:53:58;;;;;;;;;4.00;3.00;;;;;20.75;65.64;100634.66;5061611;28;45223;-65
2022/10/20 09:56:37;;;;;;;;;3.50;2.00;;;;;20.88;66.02;100630.31;5062403;28;45491;-65
2022/10/20 09:59:18;;;;;;;;;4.00;3.50;;;;;20.91;65.19;100637.28;5061788;28;46392;-65
2022/10/20 10:02:02;;;;;;;;;2.75;2.25;;;;;21.02;65.39;100636.63;5061528;28;45330;-65
2022/10/20 10:04:39;;;;;;;;;4.75;3.25;;;;;21.11;64.91;100638.78;5062405;28;45485;-65
2022/10/20 10:07:24;;;;;;;;;2.50;2.50;;;;;21.18;65.42;100634.78;5066985;28;45473;-65
2022/10/20 10:10:15;;;;;;;;;4.00;2.25;;;;;21.25;65.14;100625.41;5061155;28;46257;-65
2022/10/20 10:12:50;;;;;;;;;3.00;3.00;;;;;21.34;64.89;100617.81;5057156;28;45235;-64
2022/10/20 10:15:21;;;;;;;;;5.00;4.00;;;;;21.48;64.25;100627.66;5074616;28;45188;-64
2022/10/20 10:17:48;;;;;;;;;4.25;3.00;;;;;21.57;64.16;100629.78;5073504;28;45338;-64
2022/10/20 10:20:15;;;;;;;;;2.00;2.00;;;;;21.59;63.74;100623.38;5074964;28;46393;-64
2022/10/20 10:22:41;;;;;;;;;4.50;2.75;;;;;21.67;63.66;100627.38;5074500;27;45297;-64
2022/10/20 10:25:18;;;;;;;;;2.00;2.00;;;;;21.72;64.08;100615.47;5060168;28;45319;-64
2022/10/20 10:28:19;;;;;;;;;4.25;3.00;;;;;21.77;63.42;100611.63;5066651;28;45472;-64
2022/10/20 10:30:44;;;;;;;;;3.25;2.25;;;;;21.88;63.34;100623.34;5053340;28;45358;-64
2022/10/20 10:33:36;;;;;;;;;3.25;2.50;;;;;21.90;62.79;100597.38;5067633;28;45241;-64
2022/10/20 10:36:05;;;;;;;;;3.00;2.00;;;;;21.97;62.88;100603.19;5066548;28;45438;-64
2022/10/20 10:38:30;;;;;;;;;3.00;2.75;;;;;22.01;62.74;100601.16;5061882;27;45352;-64
2022/10/20 10:41:01;;;;;;;;;3.00;2.00;;;;;21.99;62.72;100593.25;5059469;28;51048;-65
2022/10/20 10:43:56;;;;;;;;;1.25;1.25;;;;;22.07;62.45;100595.41;5059777;28;45505;-64
2022/10/20 10:46:36;;;;;;;;;1.00;1.00;;;;;22.12;62.34;100593.31;5059934;28;45311;-64
2022/10/20 10:49:16;;;;;;;;;3.00;3.00;;;;;22.17;62.06;100596.53;5059713;28;45402;-65
2022/10/20 10:52:23;;;;;;;;;3.00;2.00;;;;;22.20;61.96;100600.81;5059333;28;45280;-64
2022/10/20 10:55:14;;;;;;;;;3.00;3.00;;;;;22.32;61.65;100589.31;5072748;28;45207;-64
2022/10/20 10:57:58;;;;;;;;;1.25;1.25;;;;;22.37;62.06;100578.34;5059471;28;45387;-64
2022/10/20 11:01:05;;;;;;;;;2.75;1.00;;;;;22.50;61.55;100575.69;5059780;28;45440;-64
2022/10/20 11:03:54;;;;;;;;;1.00;1.00;;;;;22.50;61.51;100584.63;5068819;28;45535;-65
2022/10/20 11:06:23;;;;;;;;;1.33;1.33;;;;;22.59;61.30;100568.88;5060218;27;45259;-64
2022/10/20 11:09:01;;;;;;;;;1.00;1.00;;;;;22.61;60.92;100567.81;5059511;28;45398;-65
2022/10/20 11:11:56;;;;;;;;;2.00;1.00;;;;;22.66;60.66;100573.72;5067453;28;45362;-65
2022/10/20 11:14:53;;;;;;;;;1.00;1.00;;;;;22.69;60.57;100572.63;5063803;28;45167;-64
2022/10/20 11:17:39;;;;;;;;;0.00;0.00;;;;;22.74;60.36;100575.84;5077378;27;45484;-65
2022/10/20 11:20:30;;;;;;;;;2.00;2.00;;;;;22.79;59.95;100572.88;5068815;27;45386;-64
2022/10/20 11:23:21;;;;;;;;;1.67;1.67;;;;;22.88;59.97;100558.88;5066766;28;45434;-64
2022/10/20 11:25:56;;;;;;;;;1.67;1.67;;;;;22.94;59.80;100555.75;5059844;28;46386;-64
2022/10/20 11:28:35;;;;;;;;;2.00;2.00;;;;;23.01;59.73;100553.50;5071165;28;45243;-64
2022/10/20 11:31:03;;;;;;;;;1.00;1.00;;;;;23.11;59.44;100551.06;5067310;28;45405;-64